EGJJ - Jersey Airport
Distance from station: E 5mi, 14km
Updated: 06/20/2018 8:20am
Partial fog, Partly cloudy
Partial fog, Partly cloudy
 Wind from W
Wind: W 12 mph , 19 km/h
Temperature: 63°F , 17°C
Dew Point: 59°F , 15°C
Humidity: 88%
Barometer: 30.18 inHg , 1022 hPa
Summary: Partial Fog
Clouds: Partly Cloudy
Visibility: 2 miles , 4 km
Cloud details: Few Clouds 0 ft
Partly Cloudy 100 ft
2018/06/20 15:20 EGJJ 201520Z 28010KT 260V320 4000 0900W R26/P2000 PRFG FEW000 SCT001 17/15 Q1022